createdAt,value
2023-05-10T00:01:01.018Z,9.77
2023-05-10T00:03:27.905Z,9.73
2023-05-10T00:05:54.801Z,9.68
2023-05-10T00:08:21.511Z,7.95
2023-05-10T00:10:48.467Z,9.65
2023-05-10T00:13:15.272Z,9.67
2023-05-10T00:15:42.419Z,9.65
2023-05-10T00:18:09.123Z,9.62
2023-05-10T00:20:35.886Z,8.72
2023-05-10T00:23:02.610Z,9.56
2023-05-10T00:25:29.270Z,9.34
2023-05-10T00:27:59.440Z,9.44
2023-05-10T00:30:26.113Z,8.49
2023-05-10T00:32:52.938Z,9.12
2023-05-10T00:35:19.982Z,8.67
2023-05-10T00:37:48.693Z,9.11
2023-05-10T00:40:15.712Z,8.98
2023-05-10T00:42:45.867Z,8.93
2023-05-10T00:45:12.706Z,8.83
2023-05-10T00:47:39.827Z,8.68
2023-05-10T00:50:07.594Z,8.75
2023-05-10T00:52:34.419Z,8.53
2023-05-10T00:55:01.404Z,8.18
2023-05-10T00:57:28.394Z,8.64
2023-05-10T00:59:55.206Z,7.88
2023-05-10T01:02:22.245Z,8.55
2023-05-10T01:04:50.506Z,8.37
2023-05-10T01:07:17.959Z,8.45
2023-05-10T01:09:44.783Z,7.84
2023-05-10T01:12:12.546Z,8.33
2023-05-10T01:14:39.939Z,7.88
2023-05-10T01:17:11.989Z,6.89
2023-05-10T01:19:39.370Z,8.29
2023-05-10T01:22:31.976Z,8.10
2023-05-10T01:25:16.400Z,8.09
2023-05-10T01:28:00.473Z,8.15
2023-05-10T01:31:03.550Z,8.10
2023-05-10T01:33:41.363Z,7.17
2023-05-10T01:36:26.962Z,7.98
2023-05-10T01:39:00.227Z,8.04
2023-05-10T01:41:40.934Z,8.00
2023-05-10T01:44:32.396Z,7.95
2023-05-10T01:47:05.458Z,7.90
2023-05-10T01:49:36.530Z,7.70
2023-05-10T01:52:13.859Z,7.81
2023-05-10T01:54:46.120Z,5.80
2023-05-10T01:57:15.404Z,7.45
2023-05-10T01:59:46.413Z,7.20
2023-05-10T02:02:15.965Z,7.66
2023-05-10T02:04:44.564Z,7.46
2023-05-10T02:07:12.600Z,7.56
2023-05-10T02:09:39.903Z,7.41
2023-05-10T02:12:07.860Z,7.10
2023-05-10T02:14:37.994Z,7.50
2023-05-10T02:17:07.106Z,7.46
2023-05-10T02:19:35.448Z,6.22
2023-05-10T02:22:04.352Z,7.16
2023-05-10T02:24:34.737Z,7.41
2023-05-10T02:27:04.634Z,5.77
2023-05-10T02:29:33.456Z,7.30
2023-05-10T02:32:01.243Z,6.89
2023-05-10T02:34:28.885Z,6.34
2023-05-10T02:36:57.243Z,7.33
2023-05-10T02:39:25.809Z,7.27
2023-05-10T02:41:54.587Z,7.09
2023-05-10T02:44:23.388Z,7.21
2023-05-10T02:46:50.588Z,7.22
2023-05-10T02:49:17.544Z,6.91
2023-05-10T02:51:52.538Z,6.92
2023-05-10T02:54:21.359Z,6.96
2023-05-10T02:57:01.497Z,6.98
2023-05-10T02:59:28.459Z,6.94
2023-05-10T03:01:55.263Z,6.56
2023-05-10T03:04:22.055Z,5.50
2023-05-10T03:06:49.033Z,6.56
2023-05-10T03:09:16.718Z,6.40
2023-05-10T03:12:04.958Z,6.63
2023-05-10T03:15:06.842Z,6.74
2023-05-10T03:17:47.753Z,6.80
2023-05-10T03:20:27.250Z,6.47
2023-05-10T03:23:06.358Z,5.94
2023-05-10T03:25:34.403Z,6.59
2023-05-10T03:28:05.763Z,7.08
2023-05-10T03:30:34.553Z,7.10
2023-05-10T03:33:08.356Z,7.05
2023-05-10T03:35:39.842Z,6.98
2023-05-10T03:38:06.987Z,6.77
2023-05-10T03:40:33.950Z,6.44
2023-05-10T03:43:00.788Z,6.70
2023-05-10T03:45:28.350Z,7.37
2023-05-10T03:47:55.295Z,7.40
2023-05-10T03:50:22.420Z,7.33
2023-05-10T03:52:49.299Z,7.55
2023-05-10T03:55:16.339Z,7.62
2023-05-10T03:57:43.375Z,7.74
2023-05-10T04:00:11.145Z,7.70
2023-05-10T04:02:44.021Z,7.89
2023-05-10T04:05:17.723Z,7.53
2023-05-10T04:07:45.552Z,7.96
2023-05-10T04:10:12.987Z,8.06
2023-05-10T04:12:39.760Z,8.22
2023-05-10T04:15:07.931Z,8.36
2023-05-10T04:17:35.023Z,8.50
2023-05-10T04:20:02.160Z,8.28
2023-05-10T04:22:30.066Z,7.37
2023-05-10T04:24:57.196Z,8.13
2023-05-10T04:27:24.563Z,8.65
2023-05-10T04:29:51.992Z,8.83
2023-05-10T04:32:18.929Z,7.51
2023-05-10T04:34:45.937Z,8.57
2023-05-10T04:37:12.935Z,8.37
2023-05-10T04:39:42.058Z,8.80
2023-05-10T04:42:09.729Z,8.38
2023-05-10T04:44:37.367Z,9.19
2023-05-10T04:47:04.389Z,9.27
2023-05-10T04:49:42.805Z,9.33
2023-05-10T04:52:09.877Z,9.46
2023-05-10T04:54:36.744Z,9.51
2023-05-10T04:57:03.721Z,9.57
2023-05-10T04:59:33.547Z,9.55
2023-05-10T05:02:00.373Z,9.53
2023-05-10T05:04:31.272Z,9.64
2023-05-10T05:06:58.050Z,9.69
2023-05-10T05:09:24.736Z,9.50
2023-05-10T05:11:51.514Z,9.64
2023-05-10T05:14:18.365Z,9.89
2023-05-10T05:16:45.259Z,9.44
2023-05-10T05:19:15.304Z,10.02
2023-05-10T05:21:42.163Z,9.84
2023-05-10T05:24:09.569Z,9.31
2023-05-10T05:26:36.388Z,9.97
2023-05-10T05:29:03.815Z,8.80
2023-05-10T05:31:30.708Z,10.30
2023-05-10T05:33:57.486Z,10.20
2023-05-10T05:36:24.297Z,10.06
2023-05-10T05:38:51.000Z,10.74
2023-05-10T05:41:17.972Z,10.80
2023-05-10T05:43:44.719Z,10.86
2023-05-10T05:46:11.600Z,10.64
2023-05-10T05:48:38.368Z,10.66
2023-05-10T05:51:07.188Z,10.78
2023-05-10T05:53:34.156Z,10.96
2023-05-10T05:56:01.068Z,11.24
2023-05-10T05:58:27.926Z,11.32
2023-05-10T06:00:55.084Z,11.35
2023-05-10T06:03:22.085Z,11.44
2023-05-10T06:05:49.307Z,11.64
2023-05-10T06:08:16.373Z,11.22
2023-05-10T06:10:43.239Z,11.75
2023-05-10T06:13:10.080Z,11.94
2023-05-10T06:15:37.130Z,12.10
2023-05-10T06:18:04.467Z,11.68
2023-05-10T06:20:32.520Z,11.54
2023-05-10T06:22:59.711Z,11.92
2023-05-10T06:25:26.616Z,11.50
2023-05-10T06:27:58.025Z,12.25
2023-05-10T06:30:29.870Z,12.44
2023-05-10T06:32:57.490Z,12.43
2023-05-10T06:35:24.586Z,12.39
2023-05-10T06:37:51.829Z,12.58
2023-05-10T06:40:19.127Z,12.78
2023-05-10T06:42:46.760Z,11.76
2023-05-10T06:45:14.514Z,12.89
2023-05-10T06:47:42.211Z,12.99
2023-05-10T06:50:09.848Z,13.13
2023-05-10T06:52:36.622Z,13.28
2023-05-10T06:55:04.554Z,13.42
2023-05-10T06:57:32.320Z,13.72
2023-05-10T07:00:00.413Z,13.79
2023-05-10T07:02:27.264Z,13.91
2023-05-10T07:04:54.269Z,13.99
2023-05-10T07:07:21.360Z,14.06
2023-05-10T07:09:48.311Z,14.18
2023-05-10T07:12:16.009Z,14.26
2023-05-10T07:14:43.501Z,14.49
2023-05-10T07:17:10.929Z,14.64
2023-05-10T07:19:37.777Z,14.51
2023-05-10T07:22:05.846Z,13.22
2023-05-10T07:24:34.092Z,14.14
2023-05-10T07:27:01.105Z,14.43
2023-05-10T07:29:28.040Z,14.70
2023-05-10T07:31:57.865Z,14.44
2023-05-10T07:34:25.608Z,15.14
2023-05-10T07:36:52.737Z,14.87
2023-05-10T07:39:26.486Z,14.40
2023-05-10T07:41:54.661Z,14.80
2023-05-10T07:44:21.493Z,14.99
2023-05-10T07:46:49.046Z,14.80
2023-05-10T07:49:15.891Z,14.62
2023-05-10T07:51:43.498Z,14.27
2023-05-10T07:54:10.573Z,15.22
2023-05-10T07:56:37.401Z,15.41
2023-05-10T07:59:09.272Z,15.31
2023-05-10T08:01:37.595Z,15.50
2023-05-10T08:04:04.498Z,15.15
2023-05-10T08:06:31.521Z,15.08
2023-05-10T08:08:58.391Z,15.78
2023-05-10T08:11:25.826Z,15.35
2023-05-10T08:13:52.785Z,15.49
2023-05-10T08:16:19.901Z,14.68
2023-05-10T08:18:48.301Z,14.97
2023-05-10T08:21:15.535Z,15.67
2023-05-10T08:23:44.615Z,16.04
2023-05-10T08:26:11.787Z,16.47
2023-05-10T08:28:38.631Z,16.76
2023-05-10T08:31:06.125Z,16.41
2023-05-10T08:33:33.041Z,15.43
2023-05-10T08:35:59.737Z,15.39
2023-05-10T08:38:27.010Z,14.64
2023-05-10T08:40:58.071Z,14.49
2023-05-10T08:43:31.773Z,14.69
2023-05-10T08:46:03.932Z,15.38
2023-05-10T08:48:32.017Z,15.85
2023-05-10T08:51:01.822Z,16.70
2023-05-10T08:53:29.844Z,17.23
2023-05-10T08:55:58.674Z,17.48
2023-05-10T08:58:26.334Z,17.42
2023-05-10T09:00:54.452Z,17.75
2023-05-10T09:03:21.297Z,17.95
2023-05-10T09:05:49.878Z,17.82
2023-05-10T09:08:17.942Z,17.80
2023-05-10T09:10:45.740Z,17.77
2023-05-10T09:13:12.942Z,17.93
2023-05-10T09:15:39.917Z,18.04
2023-05-10T09:18:06.945Z,17.55
2023-05-10T09:20:33.788Z,17.82
2023-05-10T09:23:00.602Z,17.73
2023-05-10T09:25:28.293Z,17.97
2023-05-10T09:27:56.073Z,17.94
2023-05-10T09:30:30.393Z,18.39
2023-05-10T09:32:59.007Z,18.49
2023-05-10T09:35:29.764Z,18.27
2023-05-10T09:38:00.358Z,18.22
2023-05-10T09:40:29.057Z,18.39
2023-05-10T09:43:01.735Z,18.57
2023-05-10T09:45:32.576Z,18.57
2023-05-10T09:48:01.680Z,18.54
2023-05-10T09:50:29.553Z,19.50
2023-05-10T09:53:02.267Z,19.40
2023-05-10T09:55:45.846Z,17.90
2023-05-10T09:58:16.475Z,19.44
2023-05-10T10:00:45.563Z,19.53
2023-05-10T10:03:22.354Z,19.66
2023-05-10T10:05:50.137Z,19.89
2023-05-10T10:08:18.661Z,19.93
2023-05-10T10:10:46.999Z,20.15
2023-05-10T10:13:14.707Z,19.66
2023-05-10T10:15:43.106Z,19.54
2023-05-10T10:18:14.001Z,20.07
2023-05-10T10:20:41.529Z,20.21
2023-05-10T10:23:09.560Z,20.57
2023-05-10T10:25:36.837Z,20.88
2023-05-10T10:28:48.375Z,20.57
2023-05-10T10:31:25.742Z,20.24
2023-05-10T10:34:00.843Z,20.58
2023-05-10T10:36:31.349Z,21.31
2023-05-10T10:39:02.506Z,22.33
2023-05-10T10:41:44.944Z,22.75
2023-05-10T10:44:27.019Z,23.17
2023-05-10T10:47:30.931Z,23.41
2023-05-10T10:50:06.184Z,23.42
2023-05-10T10:52:43.412Z,24.06
2023-05-10T10:55:20.199Z,24.81
2023-05-10T10:58:01.451Z,25.15
2023-05-10T11:00:33.540Z,24.31
2023-05-10T11:03:03.525Z,24.93
2023-05-10T11:05:30.362Z,25.67
2023-05-10T11:07:58.808Z,26.32
2023-05-10T11:10:26.291Z,27.00
2023-05-10T11:13:10.274Z,27.31
2023-05-10T11:15:39.573Z,28.26
2023-05-10T11:18:28.478Z,29.24
2023-05-10T11:21:06.340Z,29.44
2023-05-10T11:23:48.736Z,28.48
2023-05-10T11:26:15.727Z,31.84
2023-05-10T11:28:47.107Z,33.02
2023-05-10T11:31:18.552Z,33.97
2023-05-10T11:33:51.062Z,34.74
2023-05-10T11:36:21.099Z,36.28
2023-05-10T11:38:49.057Z,36.52
2023-05-10T11:41:19.922Z,39.38
2023-05-10T11:43:49.892Z,41.20
2023-05-10T11:46:19.486Z,42.26
2023-05-10T11:48:46.322Z,42.87
2023-05-10T11:51:13.127Z,43.01
2023-05-10T11:53:39.990Z,42.29
2023-05-10T11:56:10.889Z,42.09
2023-05-10T11:58:39.443Z,42.36
2023-05-10T12:01:08.333Z,43.52
2023-05-10T12:03:35.518Z,42.92
2023-05-10T12:06:03.772Z,41.61
2023-05-10T12:08:31.947Z,41.04
2023-05-10T12:11:11.469Z,41.61
2023-05-10T12:13:42.390Z,42.95
2023-05-10T12:16:18.269Z,43.71
2023-05-10T12:18:46.782Z,44.79
2023-05-10T12:21:14.257Z,44.78
2023-05-10T12:23:41.398Z,44.67
2023-05-10T12:26:11.085Z,43.66
2023-05-10T12:28:38.756Z,40.89
2023-05-10T12:31:07.130Z,41.01
2023-05-10T12:33:45.553Z,41.79
2023-05-10T12:36:14.260Z,43.04
2023-05-10T12:38:48.656Z,43.63
2023-05-10T12:41:19.618Z,44.61
2023-05-10T12:43:47.357Z,44.41
2023-05-10T12:46:15.379Z,44.53
2023-05-10T12:48:43.678Z,44.71
2023-05-10T12:51:12.836Z,44.69
2023-05-10T12:53:45.025Z,43.96
2023-05-10T12:56:12.913Z,42.78
2023-05-10T12:58:39.837Z,42.26
2023-05-10T13:01:07.002Z,42.17
2023-05-10T13:03:33.991Z,39.73
2023-05-10T13:06:02.998Z,37.49
2023-05-10T13:08:34.123Z,34.91
2023-05-10T13:11:02.152Z,33.36
2023-05-10T13:13:29.168Z,32.20
2023-05-10T13:15:55.896Z,28.77
2023-05-10T13:18:22.746Z,26.47
2023-05-10T13:20:50.664Z,25.53
2023-05-10T13:23:20.384Z,26.55
2023-05-10T13:25:47.282Z,27.35
2023-05-10T13:28:14.016Z,26.68
2023-05-10T13:30:40.692Z,28.09
2023-05-10T13:33:07.397Z,25.89
2023-05-10T13:35:34.189Z,24.62
2023-05-10T13:38:00.870Z,24.31
2023-05-10T13:40:27.624Z,24.29
2023-05-10T13:42:54.489Z,23.84
2023-05-10T13:45:21.809Z,25.72
2023-05-10T13:47:48.687Z,26.93
2023-05-10T13:50:15.517Z,25.21
2023-05-10T13:52:42.305Z,23.38
2023-05-10T13:55:09.365Z,22.15
2023-05-10T13:57:37.139Z,22.11
2023-05-10T14:00:04.659Z,21.67
2023-05-10T14:02:35.621Z,21.33
2023-05-10T14:05:02.626Z,21.28
2023-05-10T14:07:29.394Z,21.54
2023-05-10T14:09:56.194Z,21.05
2023-05-10T14:12:23.077Z,20.85
2023-05-10T14:14:50.050Z,20.80
2023-05-10T14:17:17.179Z,19.45
2023-05-10T14:19:44.259Z,20.13
2023-05-10T14:22:11.302Z,19.91
2023-05-10T14:24:39.128Z,21.52
2023-05-10T14:27:06.926Z,22.75
2023-05-10T14:29:33.969Z,24.50
2023-05-10T14:32:00.835Z,23.26
2023-05-10T14:34:27.593Z,21.17
2023-05-10T14:36:54.246Z,19.83
2023-05-10T14:39:21.173Z,18.73
2023-05-10T14:41:48.387Z,19.19
2023-05-10T14:44:16.415Z,19.08
2023-05-10T14:46:43.510Z,18.39
2023-05-10T14:49:10.327Z,18.49
2023-05-10T14:51:37.871Z,18.53
2023-05-10T14:54:05.059Z,18.70
2023-05-10T14:56:33.310Z,18.99
2023-05-10T14:59:01.268Z,18.92
2023-05-10T15:01:29.327Z,17.92
2023-05-10T15:03:56.954Z,18.35
2023-05-10T15:06:31.504Z,18.24
2023-05-10T15:08:58.458Z,17.22
2023-05-10T15:11:25.506Z,18.03
2023-05-10T15:13:52.705Z,17.42
2023-05-10T15:16:20.014Z,17.38
2023-05-10T15:18:46.829Z,17.67
2023-05-10T15:21:13.684Z,17.54
2023-05-10T15:23:40.750Z,17.28
2023-05-10T15:26:07.550Z,17.12
2023-05-10T15:28:34.555Z,17.30
2023-05-10T15:31:01.689Z,15.54
2023-05-10T15:33:28.537Z,17.35
2023-05-10T15:35:55.742Z,16.82
2023-05-10T15:38:22.562Z,17.04
2023-05-10T15:40:49.382Z,17.20
2023-05-10T15:43:17.341Z,16.53
2023-05-10T15:45:44.471Z,17.06
2023-05-10T15:48:11.599Z,17.09
2023-05-10T15:50:38.514Z,16.80
2023-05-10T15:53:05.715Z,18.17
2023-05-10T15:55:32.483Z,18.68
2023-05-10T15:57:59.574Z,18.24
2023-05-10T16:00:26.753Z,17.59
2023-05-10T16:02:54.410Z,17.50
2023-05-10T16:05:22.298Z,17.22
2023-05-10T16:07:49.628Z,17.35
2023-05-10T16:10:16.812Z,17.24
2023-05-10T16:12:43.757Z,17.05
2023-05-10T16:15:11.142Z,17.26
2023-05-10T16:17:38.196Z,17.25
2023-05-10T16:20:05.898Z,16.91
2023-05-10T16:22:32.835Z,17.00
2023-05-10T16:24:59.870Z,16.67
2023-05-10T16:27:28.750Z,16.86
2023-05-10T16:29:56.090Z,16.76
2023-05-10T16:32:23.039Z,16.69
2023-05-10T16:34:50.385Z,16.51
2023-05-10T16:37:17.563Z,16.11
2023-05-10T16:39:44.390Z,15.68
2023-05-10T16:42:11.582Z,16.34
2023-05-10T16:44:38.621Z,16.15
2023-05-10T16:47:05.597Z,15.77
2023-05-10T16:49:32.402Z,16.02
2023-05-10T16:52:00.575Z,16.01
2023-05-10T16:54:28.869Z,15.57
2023-05-10T16:57:29.775Z,15.89
2023-05-10T16:59:49.371Z,15.70
2023-05-10T17:02:16.970Z,15.04
2023-05-10T17:04:44.266Z,15.77
2023-05-10T17:07:13.135Z,15.72
2023-05-10T17:09:42.045Z,15.66
2023-05-10T17:12:15.096Z,15.21
2023-05-10T17:14:42.176Z,15.44
2023-05-10T17:17:09.486Z,15.34
2023-05-10T17:19:36.576Z,14.97
2023-05-10T17:22:03.547Z,14.88
2023-05-10T17:24:31.156Z,14.43
2023-05-10T17:26:58.372Z,15.09
2023-05-10T17:29:25.428Z,15.01
2023-05-10T17:31:52.723Z,14.49
2023-05-10T17:34:19.777Z,14.80
2023-05-10T17:36:46.793Z,14.69
2023-05-10T17:39:13.655Z,14.34
2023-05-10T17:41:41.257Z,14.58
2023-05-10T17:44:08.481Z,14.41
2023-05-10T17:46:35.645Z,14.15
2023-05-10T17:49:02.787Z,14.25
2023-05-10T17:51:30.074Z,14.31
2023-05-10T17:53:57.119Z,14.24
2023-05-10T17:56:24.452Z,14.26
2023-05-10T17:58:51.509Z,14.23
2023-05-10T18:01:18.812Z,13.41
2023-05-10T18:03:46.339Z,14.02
2023-05-10T18:06:14.482Z,14.09
2023-05-10T18:08:41.885Z,13.91
2023-05-10T18:11:08.854Z,14.01
2023-05-10T18:13:36.489Z,12.63
2023-05-10T18:16:06.141Z,13.31
2023-05-10T18:18:33.340Z,13.99
2023-05-10T18:21:00.863Z,13.98
2023-05-10T18:23:27.747Z,13.65
2023-05-10T18:25:54.710Z,13.91
2023-05-10T18:28:22.483Z,13.83
2023-05-10T18:30:51.923Z,13.82
2023-05-10T18:33:19.004Z,13.73
2023-05-10T18:35:47.359Z,13.66
2023-05-10T18:38:14.429Z,13.42
2023-05-10T18:40:44.132Z,13.55
2023-05-10T18:43:12.717Z,13.50
2023-05-10T18:45:49.319Z,11.27
2023-05-10T18:48:22.925Z,13.28
2023-05-10T18:50:56.288Z,13.26
2023-05-10T18:53:23.831Z,13.16
2023-05-10T18:56:02.921Z,12.07
2023-05-10T18:58:30.620Z,13.16
2023-05-10T19:00:59.028Z,13.10
2023-05-10T19:03:26.183Z,11.86
2023-05-10T19:05:53.348Z,13.02
2023-05-10T19:08:22.745Z,12.38
2023-05-10T19:10:49.995Z,11.91
2023-05-10T19:13:16.990Z,12.18
2023-05-10T19:15:47.342Z,12.12
2023-05-10T19:18:16.533Z,12.71
2023-05-10T19:20:46.896Z,12.65
2023-05-10T19:23:16.550Z,11.87
2023-05-10T19:25:44.892Z,11.64
2023-05-10T19:28:13.076Z,12.14
2023-05-10T19:30:43.090Z,11.68
2023-05-10T19:33:11.163Z,12.34
2023-05-10T19:36:00.723Z,12.22
2023-05-10T19:38:36.288Z,12.12
2023-05-10T19:41:11.649Z,11.39
2023-05-10T19:44:14.384Z,12.10
2023-05-10T19:46:47.348Z,11.99
2023-05-10T19:49:14.543Z,11.55
2023-05-10T19:51:41.417Z,11.39
2023-05-10T19:54:08.452Z,10.80
2023-05-10T19:56:38.023Z,11.31
2023-05-10T19:59:08.184Z,11.55
2023-05-10T20:01:35.796Z,11.61
2023-05-10T20:04:29.823Z,11.48
2023-05-10T20:07:00.240Z,11.50
2023-05-10T20:09:31.366Z,10.94
2023-05-10T20:11:59.500Z,11.12
2023-05-10T20:14:26.312Z,10.82
2023-05-10T20:16:53.128Z,11.20
2023-05-10T20:19:19.977Z,10.15
2023-05-10T20:21:46.862Z,10.83
2023-05-10T20:24:13.792Z,9.47
2023-05-10T20:26:40.952Z,10.91
2023-05-10T20:29:09.347Z,10.35
2023-05-10T20:31:37.404Z,10.63
2023-05-10T20:34:04.745Z,10.73
2023-05-10T20:36:31.978Z,10.64
2023-05-10T20:39:07.898Z,9.98
2023-05-10T20:41:34.906Z,10.55
2023-05-10T20:44:02.137Z,10.38
2023-05-10T20:46:30.335Z,10.28
2023-05-10T20:48:57.985Z,10.30
2023-05-10T20:51:25.027Z,9.76
2023-05-10T20:53:51.925Z,10.23
2023-05-10T20:56:19.670Z,10.22
2023-05-10T20:58:46.548Z,8.36
2023-05-10T21:01:13.543Z,10.00
2023-05-10T21:03:40.399Z,9.70
2023-05-10T21:06:07.182Z,9.73
2023-05-10T21:08:33.964Z,9.74
2023-05-10T21:11:04.733Z,9.55
2023-05-10T21:13:33.017Z,9.78
2023-05-10T21:15:59.853Z,9.97
2023-05-10T21:18:26.760Z,8.64
2023-05-10T21:20:53.691Z,9.18
2023-05-10T21:23:20.445Z,9.84
2023-05-10T21:25:47.251Z,9.09
2023-05-10T21:28:14.133Z,9.52
2023-05-10T21:30:41.224Z,9.05
2023-05-10T21:33:08.051Z,9.04
2023-05-10T21:35:34.980Z,9.59
2023-05-10T21:38:01.754Z,8.94
2023-05-10T21:40:28.864Z,9.47
2023-05-10T21:42:55.559Z,9.13
2023-05-10T21:45:22.537Z,9.43
2023-05-10T21:47:49.471Z,9.38
2023-05-10T21:50:16.412Z,8.70
2023-05-10T21:52:46.001Z,9.16
2023-05-10T21:55:12.865Z,9.37
2023-05-10T21:57:39.817Z,8.46
2023-05-10T22:00:07.564Z,8.62
2023-05-10T22:02:34.298Z,8.87
2023-05-10T22:05:02.047Z,9.16
2023-05-10T22:07:30.341Z,8.74
2023-05-10T22:09:57.128Z,9.00
2023-05-10T22:12:24.008Z,8.98
2023-05-10T22:14:59.517Z,8.68
2023-05-10T22:17:38.256Z,8.63
2023-05-10T22:20:09.321Z,8.62
2023-05-10T22:22:36.808Z,7.98
2023-05-10T22:25:07.865Z,8.73
2023-05-10T22:27:35.073Z,8.62
2023-05-10T22:30:02.179Z,7.95
2023-05-10T22:32:29.064Z,8.31
2023-05-10T22:34:55.771Z,8.61
2023-05-10T22:37:22.583Z,8.49
2023-05-10T22:39:49.823Z,8.21
2023-05-10T22:42:16.618Z,8.41
2023-05-10T22:44:44.279Z,6.87
2023-05-10T22:47:11.077Z,8.38
2023-05-10T22:49:37.797Z,8.28
2023-05-10T22:52:04.589Z,8.37
2023-05-10T22:54:31.289Z,8.29
2023-05-10T22:56:58.116Z,7.56
2023-05-10T22:59:25.012Z,8.00
2023-05-10T23:01:51.754Z,7.99
2023-05-10T23:04:18.448Z,7.56
2023-05-10T23:06:46.378Z,7.72
2023-05-10T23:09:13.154Z,7.50
2023-05-10T23:11:39.951Z,7.38
2023-05-10T23:14:06.724Z,7.81
2023-05-10T23:16:33.444Z,7.82
2023-05-10T23:19:03.142Z,6.55
2023-05-10T23:21:31.985Z,6.54
2023-05-10T23:23:59.160Z,6.64
2023-05-10T23:26:25.917Z,6.81
2023-05-10T23:28:52.740Z,7.34
2023-05-10T23:31:19.500Z,6.36
2023-05-10T23:33:46.186Z,7.32
2023-05-10T23:36:13.016Z,7.50
2023-05-10T23:38:39.715Z,7.50
2023-05-10T23:41:06.437Z,7.11
2023-05-10T23:43:33.149Z,6.98
2023-05-10T23:45:59.920Z,7.07
2023-05-10T23:48:26.753Z,6.96
2023-05-10T23:50:53.655Z,7.18
2023-05-10T23:53:20.500Z,6.91
2023-05-10T23:55:47.373Z,7.19
2023-05-10T23:58:14.177Z,6.58
